createdAt,value
2022-09-15T00:00:09.258Z,15.35
2022-09-15T00:00:19.306Z,15.34
2022-09-15T00:00:29.398Z,15.35
2022-09-15T00:00:39.434Z,15.34
2022-09-15T00:00:49.503Z,15.34
2022-09-15T00:00:59.536Z,15.34
2022-09-15T00:01:09.588Z,15.35
2022-09-15T00:01:19.678Z,15.35
2022-09-15T00:01:29.802Z,15.33
2022-09-15T00:01:39.796Z,15.35
2022-09-15T00:01:49.927Z,15.33
2022-09-15T00:02:00.053Z,15.33
2022-09-15T00:02:10.178Z,15.33
2022-09-15T00:02:20.196Z,15.31
2022-09-15T00:02:30.111Z,15.33
2022-09-15T00:02:40.104Z,15.33
2022-09-15T00:02:50.221Z,15.33
2022-09-15T00:03:00.359Z,15.31
2022-09-15T00:03:10.375Z,15.31
2022-09-15T00:03:20.501Z,15.30
2022-09-15T00:03:30.516Z,15.31
2022-09-15T00:03:40.556Z,15.30
2022-09-15T00:03:50.619Z,15.30
2022-09-15T00:04:00.655Z,15.28
2022-09-15T00:04:10.673Z,15.27
2022-09-15T00:04:20.708Z,15.28
2022-09-15T00:04:30.745Z,15.27
2022-09-15T00:04:40.777Z,15.28
2022-09-15T00:04:50.848Z,15.27
2022-09-15T00:05:00.917Z,15.25
2022-09-15T00:05:10.953Z,15.23
2022-09-15T00:05:20.985Z,15.23
2022-09-15T00:05:31.024Z,15.23
2022-09-15T00:05:41.063Z,15.23
2022-09-15T00:05:51.106Z,15.25
2022-09-15T00:06:01.146Z,15.23
2022-09-15T00:06:11.177Z,15.23
2022-09-15T00:06:21.206Z,15.23
2022-09-15T00:06:31.237Z,15.22
2022-09-15T00:06:41.283Z,15.22
2022-09-15T00:06:51.336Z,15.23
2022-09-15T00:07:01.377Z,15.22
2022-09-15T00:07:11.445Z,15.22
2022-09-15T00:07:21.486Z,15.22
2022-09-15T00:07:31.566Z,15.22
2022-09-15T00:07:41.606Z,15.22
2022-09-15T00:07:51.649Z,15.20
2022-09-15T00:08:01.718Z,15.20
2022-09-15T00:08:11.765Z,15.20
2022-09-15T00:08:21.825Z,15.19
2022-09-15T00:08:31.894Z,15.19
2022-09-15T00:08:41.976Z,15.19
2022-09-15T00:08:52.034Z,15.20
2022-09-15T00:09:02.084Z,15.19
2022-09-15T00:09:12.133Z,15.19
2022-09-15T00:09:22.165Z,15.19
2022-09-15T00:09:32.218Z,15.19
2022-09-15T00:09:42.276Z,15.19
2022-09-15T00:09:52.316Z,15.19
2022-09-15T00:10:02.361Z,15.18
2022-09-15T00:10:12.396Z,15.19
2022-09-15T00:10:22.436Z,15.19
2022-09-15T00:10:32.503Z,15.18
2022-09-15T00:10:42.535Z,15.18
2022-09-15T00:10:52.578Z,15.19
2022-09-15T00:11:02.616Z,15.18
2022-09-15T00:11:12.665Z,15.19
2022-09-15T00:11:22.739Z,15.18
2022-09-15T00:11:32.798Z,15.18
2022-09-15T00:11:42.885Z,15.19
2022-09-15T00:11:52.935Z,15.18
2022-09-15T00:12:02.986Z,15.18
2022-09-15T00:12:13.030Z,15.18
2022-09-15T00:12:23.086Z,15.18
2022-09-15T00:12:33.157Z,15.18
2022-09-15T00:12:43.205Z,15.19
2022-09-15T00:12:53.236Z,15.19
2022-09-15T00:13:03.283Z,15.19
2022-09-15T00:13:13.318Z,15.19
2022-09-15T00:13:23.377Z,15.18
2022-09-15T00:13:33.467Z,15.16
2022-09-15T00:13:43.525Z,15.19
2022-09-15T00:13:53.576Z,15.18
2022-09-15T00:14:03.619Z,15.19
2022-09-15T00:14:13.654Z,15.19
2022-09-15T00:14:23.725Z,15.18
2022-09-15T00:14:33.745Z,15.19
2022-09-15T00:14:43.786Z,15.19
2022-09-15T00:14:53.826Z,15.19
2022-09-15T00:15:03.875Z,15.19
2022-09-15T00:15:13.905Z,15.20
2022-09-15T00:15:23.955Z,15.19
2022-09-15T00:15:33.986Z,15.19
2022-09-15T00:15:44.044Z,15.19
2022-09-15T00:15:54.077Z,15.20
2022-09-15T00:16:04.123Z,15.20
2022-09-15T00:16:15.387Z,15.20
2022-09-15T00:16:24.348Z,15.20
2022-09-15T00:16:34.482Z,15.20
2022-09-15T00:16:44.483Z,15.20
2022-09-15T00:16:54.583Z,15.20
2022-09-15T00:17:04.718Z,15.20
2022-09-15T00:17:14.831Z,15.20
2022-09-15T00:17:24.864Z,15.22
2022-09-15T00:17:34.937Z,15.22
2022-09-15T00:17:44.976Z,15.22
2022-09-15T00:17:55.024Z,15.22
2022-09-15T00:18:05.055Z,15.20
2022-09-15T00:18:15.112Z,15.22
2022-09-15T00:18:25.176Z,15.22
2022-09-15T00:18:35.242Z,15.23
2022-09-15T00:18:45.319Z,15.22
2022-09-15T00:18:55.357Z,15.22
2022-09-15T00:19:05.436Z,15.23
2022-09-15T00:19:15.476Z,15.22
2022-09-15T00:19:25.515Z,15.22
2022-09-15T00:19:35.576Z,15.23
2022-09-15T00:19:45.636Z,15.22
2022-09-15T00:19:55.667Z,15.23
2022-09-15T00:20:05.713Z,15.25
2022-09-15T00:20:15.745Z,15.23
2022-09-15T00:20:25.776Z,15.22
2022-09-15T00:20:35.814Z,15.23
2022-09-15T00:20:45.848Z,15.23
2022-09-15T00:20:55.876Z,15.23
2022-09-15T00:21:05.915Z,15.23
2022-09-15T00:21:15.962Z,15.25
2022-09-15T00:21:25.995Z,15.23
2022-09-15T00:21:36.054Z,15.25
2022-09-15T00:21:46.158Z,15.25
2022-09-15T00:21:56.194Z,15.25
2022-09-15T00:22:06.236Z,15.25
2022-09-15T00:22:16.274Z,15.27
2022-09-15T00:22:26.317Z,15.27
2022-09-15T00:22:36.366Z,15.25
2022-09-15T00:22:46.396Z,15.23
2022-09-15T00:22:56.426Z,15.27
2022-09-15T00:23:06.464Z,15.25
2022-09-15T00:23:16.484Z,15.25
2022-09-15T00:23:26.514Z,15.25
2022-09-15T00:23:36.547Z,15.27
2022-09-15T00:23:46.574Z,15.25
2022-09-15T00:23:56.618Z,15.27
2022-09-15T00:24:06.654Z,15.27
2022-09-15T00:24:16.692Z,15.28
2022-09-15T00:24:26.726Z,15.28
2022-09-15T00:24:36.745Z,15.27
2022-09-15T00:24:46.776Z,15.28
2022-09-15T00:24:56.812Z,15.27
2022-09-15T00:25:06.834Z,15.27
2022-09-15T00:25:16.865Z,15.28
2022-09-15T00:25:26.904Z,15.27
2022-09-15T00:25:36.943Z,15.27
2022-09-15T00:25:46.965Z,15.30
2022-09-15T00:25:56.985Z,15.28
2022-09-15T00:26:07.028Z,15.28
2022-09-15T00:26:17.104Z,15.28
2022-09-15T00:26:27.145Z,15.28
2022-09-15T00:26:37.197Z,15.28
2022-09-15T00:26:47.364Z,15.30
2022-09-15T00:26:57.415Z,15.30
2022-09-15T00:27:07.445Z,15.30
2022-09-15T00:27:17.516Z,15.30
2022-09-15T00:27:27.572Z,15.30
2022-09-15T00:27:37.636Z,15.30
2022-09-15T00:27:47.673Z,15.30
2022-09-15T00:27:57.715Z,15.30
2022-09-15T00:28:07.769Z,15.30
2022-09-15T00:28:17.796Z,15.28
2022-09-15T00:28:27.832Z,15.28
2022-09-15T00:28:37.876Z,15.28
2022-09-15T00:28:47.903Z,15.30
2022-09-15T00:28:57.955Z,15.30
2022-09-15T00:29:08.025Z,15.30
2022-09-15T00:29:18.055Z,15.30
2022-09-15T00:29:28.085Z,15.30
2022-09-15T00:29:38.119Z,15.31
2022-09-15T00:29:48.145Z,15.28
2022-09-15T00:29:58.182Z,15.31
2022-09-15T00:30:08.215Z,15.30
2022-09-15T00:30:18.245Z,15.30
2022-09-15T00:30:28.349Z,15.31
2022-09-15T00:30:38.383Z,15.30
2022-09-15T00:30:48.461Z,15.30
2022-09-15T00:30:58.588Z,15.30
2022-09-15T00:31:08.751Z,15.31
2022-09-15T00:31:18.698Z,15.31
2022-09-15T00:31:28.629Z,15.30
2022-09-15T00:31:38.645Z,15.30
2022-09-15T00:31:48.688Z,15.33
2022-09-15T00:31:58.715Z,15.31
2022-09-15T00:32:08.757Z,15.30
2022-09-15T00:32:18.816Z,15.31
2022-09-15T00:32:28.846Z,15.31
2022-09-15T00:32:38.945Z,15.31
2022-09-15T00:32:48.984Z,15.31
2022-09-15T00:32:59.017Z,15.31
2022-09-15T00:33:09.054Z,15.31
2022-09-15T00:33:19.075Z,15.31
2022-09-15T00:33:29.115Z,15.33
2022-09-15T00:33:39.156Z,15.33
2022-09-15T00:33:49.194Z,15.31
2022-09-15T00:33:59.245Z,15.31
2022-09-15T00:34:09.303Z,15.31
2022-09-15T00:34:19.355Z,15.33
2022-09-15T00:34:29.402Z,15.31
2022-09-15T00:34:39.424Z,15.33
2022-09-15T00:34:49.473Z,15.33
2022-09-15T00:34:59.495Z,15.31
2022-09-15T00:35:09.542Z,15.31
2022-09-15T00:35:19.573Z,15.31
2022-09-15T00:35:29.616Z,15.33
2022-09-15T00:35:39.652Z,15.31
2022-09-15T00:35:49.705Z,15.31
2022-09-15T00:35:59.735Z,15.31
2022-09-15T00:36:09.758Z,15.30
2022-09-15T00:36:19.815Z,15.31
2022-09-15T00:36:29.864Z,15.31
2022-09-15T00:36:39.907Z,15.30
2022-09-15T00:36:49.945Z,15.30
2022-09-15T00:36:59.973Z,15.30
2022-09-15T00:37:10.005Z,15.33
2022-09-15T00:37:20.025Z,15.30
2022-09-15T00:37:30.065Z,15.33
2022-09-15T00:37:40.097Z,15.31
2022-09-15T00:37:50.133Z,15.31
2022-09-15T00:38:00.164Z,15.30
2022-09-15T00:38:10.205Z,15.30
2022-09-15T00:38:20.275Z,15.30
2022-09-15T00:38:30.325Z,15.28
2022-09-15T00:38:40.363Z,15.28
2022-09-15T00:38:50.385Z,15.28
2022-09-15T00:39:00.425Z,15.28
2022-09-15T00:39:10.462Z,15.30
2022-09-15T00:39:20.494Z,15.28
2022-09-15T00:39:30.535Z,15.27
2022-09-15T00:39:40.574Z,15.27
2022-09-15T00:39:50.666Z,15.28
2022-09-15T00:40:00.772Z,15.27
2022-09-15T00:40:10.854Z,15.28
2022-09-15T00:40:20.918Z,15.27
2022-09-15T00:40:31.021Z,15.27
2022-09-15T00:40:41.083Z,15.27
2022-09-15T00:40:51.122Z,15.27
2022-09-15T00:41:01.166Z,15.25
2022-09-15T00:41:11.204Z,15.23
2022-09-15T00:41:21.274Z,15.23
2022-09-15T00:41:31.315Z,15.25
2022-09-15T00:41:41.344Z,15.25
2022-09-15T00:41:51.385Z,15.22
2022-09-15T00:42:01.442Z,15.22
2022-09-15T00:42:11.830Z,15.23
2022-09-15T00:42:21.642Z,15.22
2022-09-15T00:42:31.674Z,15.22
2022-09-15T00:42:41.712Z,15.20
2022-09-15T00:42:51.755Z,15.20
2022-09-15T00:43:01.783Z,15.19
2022-09-15T00:43:11.848Z,15.20
2022-09-15T00:43:21.895Z,15.19
2022-09-15T00:43:31.943Z,15.19
2022-09-15T00:43:41.987Z,15.19
2022-09-15T00:43:52.204Z,15.18
2022-09-15T00:44:02.125Z,15.18
2022-09-15T00:44:12.173Z,15.18
2022-09-15T00:44:22.224Z,15.18
2022-09-15T00:44:32.277Z,15.16
2022-09-15T00:44:42.432Z,15.16
2022-09-15T00:44:52.473Z,15.18
2022-09-15T00:45:02.515Z,15.16
2022-09-15T00:45:13.653Z,15.16
2022-09-15T00:45:22.701Z,15.16
2022-09-15T00:45:32.767Z,15.16
2022-09-15T00:45:42.821Z,15.16
2022-09-15T00:45:52.940Z,15.15
2022-09-15T00:46:02.893Z,15.15
2022-09-15T00:46:12.992Z,15.15
2022-09-15T00:46:23.082Z,15.15
2022-09-15T00:46:33.125Z,15.15
2022-09-15T00:46:43.153Z,15.15
2022-09-15T00:47:09.697Z,15.15
2022-09-15T00:47:18.854Z,15.13
2022-09-15T00:47:19.583Z,15.12
2022-09-15T00:47:25.207Z,15.13
2022-09-15T00:47:35.246Z,15.15
2022-09-15T00:47:45.292Z,15.13
2022-09-15T00:47:55.333Z,15.15
2022-09-15T00:48:05.354Z,15.13
2022-09-15T00:48:15.394Z,15.15
2022-09-15T00:48:25.414Z,15.13
2022-09-15T00:48:35.452Z,15.13
2022-09-15T00:48:45.476Z,15.13
2022-09-15T00:48:55.504Z,15.15
2022-09-15T00:49:05.534Z,15.13
2022-09-15T00:49:15.565Z,15.13
2022-09-15T00:49:25.595Z,15.13
2022-09-15T00:49:35.624Z,15.13
2022-09-15T00:49:45.654Z,15.13
2022-09-15T00:49:59.006Z,15.13
2022-09-15T00:50:05.704Z,15.13
2022-09-15T00:50:15.742Z,15.12
2022-09-15T00:50:25.779Z,15.13
2022-09-15T00:50:35.812Z,15.13
2022-09-15T00:50:45.847Z,15.12
2022-09-15T00:50:55.894Z,15.13
2022-09-15T00:51:05.934Z,15.13
2022-09-15T00:51:15.973Z,15.12
2022-09-15T00:51:25.994Z,15.12
2022-09-15T00:51:36.024Z,15.12
2022-09-15T00:51:46.056Z,15.12
2022-09-15T00:51:56.084Z,15.12
2022-09-15T00:52:06.124Z,15.12
2022-09-15T00:52:16.164Z,15.12
2022-09-15T00:52:26.194Z,15.12
2022-09-15T00:52:36.324Z,15.11
2022-09-15T00:52:46.424Z,15.12
2022-09-15T00:52:56.477Z,15.13
2022-09-15T00:53:06.504Z,15.12
2022-09-15T00:53:16.544Z,15.12
2022-09-15T00:53:26.572Z,15.12
2022-09-15T00:53:36.621Z,15.12
2022-09-15T00:53:46.674Z,15.12
2022-09-15T00:53:56.712Z,15.12
2022-09-15T00:54:06.773Z,15.12
2022-09-15T00:54:16.833Z,15.12
2022-09-15T00:54:26.954Z,15.12
2022-09-15T00:54:37.012Z,15.11
2022-09-15T00:54:47.087Z,15.13
2022-09-15T00:54:57.125Z,15.12
2022-09-15T00:55:07.184Z,15.12
2022-09-15T00:55:17.215Z,15.12
2022-09-15T00:55:27.244Z,15.11
2022-09-15T00:55:37.283Z,15.11
2022-09-15T00:55:47.324Z,15.12
2022-09-15T00:55:57.388Z,15.11
2022-09-15T00:56:07.414Z,15.11
2022-09-15T00:56:17.466Z,15.12
2022-09-15T00:56:27.534Z,15.12
2022-09-15T00:56:37.573Z,15.11
2022-09-15T00:56:47.654Z,15.11
2022-09-15T00:56:57.695Z,15.11
2022-09-15T00:57:07.724Z,15.09
2022-09-15T00:57:17.744Z,15.09
2022-09-15T00:57:27.785Z,15.11
2022-09-15T00:57:37.853Z,15.11
2022-09-15T00:57:47.894Z,15.11
2022-09-15T00:57:57.934Z,15.09
2022-09-15T00:58:07.974Z,15.09
2022-09-15T00:58:18.016Z,15.07
2022-09-15T00:58:28.062Z,15.09
2022-09-15T00:58:38.194Z,15.07
2022-09-15T00:58:48.256Z,15.07
2022-09-15T00:58:58.284Z,15.09
2022-09-15T00:59:08.314Z,15.09
2022-09-15T00:59:18.346Z,15.07
2022-09-15T00:59:28.372Z,15.09
2022-09-15T00:59:38.414Z,15.07
2022-09-15T00:59:48.463Z,15.07
2022-09-15T00:59:58.501Z,15.07
2022-09-15T01:00:08.514Z,15.07
2022-09-15T01:00:18.542Z,15.07
2022-09-15T01:00:28.635Z,15.07
2022-09-15T01:00:38.674Z,15.05
2022-09-15T01:00:48.881Z,15.05
2022-09-15T01:00:59.028Z,15.05
2022-09-15T01:01:09.162Z,15.05
2022-09-15T01:01:19.135Z,15.05
2022-09-15T01:01:29.213Z,15.04
2022-09-15T01:01:39.371Z,15.05
2022-09-15T01:01:49.468Z,15.04
2022-09-15T01:01:59.523Z,15.04
2022-09-15T01:02:09.608Z,15.03
2022-09-15T01:02:19.733Z,15.03
2022-09-15T01:02:29.852Z,15.03
2022-09-15T01:02:39.953Z,15.03
2022-09-15T01:02:49.954Z,15.03
2022-09-15T01:02:59.975Z,15.03
2022-09-15T01:03:10.014Z,15.03
2022-09-15T01:03:20.054Z,15.03
2022-09-15T01:03:30.103Z,15.03
2022-09-15T01:03:40.134Z,15.01
2022-09-15T01:03:50.175Z,15.03
2022-09-15T01:04:00.213Z,15.03
2022-09-15T01:04:10.252Z,15.01
2022-09-15T01:04:20.284Z,15.01
2022-09-15T01:04:30.332Z,15.03
2022-09-15T01:04:40.374Z,15.03
2022-09-15T01:04:53.689Z,15.03
2022-09-15T01:05:01.374Z,15.00
2022-09-15T01:05:11.414Z,15.03
2022-09-15T01:05:21.446Z,15.01
2022-09-15T01:05:31.524Z,15.01
2022-09-15T01:05:41.721Z,15.01
2022-09-15T01:05:51.784Z,15.03
2022-09-15T01:06:01.814Z,15.03
2022-09-15T01:06:11.841Z,15.03
2022-09-15T01:06:21.874Z,15.01
2022-09-15T01:06:31.903Z,15.01
2022-09-15T01:06:41.936Z,15.01
2022-09-15T01:06:51.964Z,15.03
2022-09-15T01:07:02.013Z,15.01
2022-09-15T01:07:12.052Z,15.01
2022-09-15T01:07:22.094Z,15.03
2022-09-15T01:07:32.114Z,15.03
2022-09-15T01:07:42.141Z,15.04
2022-09-15T01:07:52.164Z,15.04
2022-09-15T01:08:02.186Z,15.03
2022-09-15T01:08:12.204Z,15.01
2022-09-15T01:08:22.246Z,15.03
2022-09-15T01:08:32.274Z,15.03
2022-09-15T01:08:42.302Z,15.01
2022-09-15T01:08:52.382Z,15.01
2022-09-15T01:09:02.363Z,15.01
2022-09-15T01:09:12.402Z,15.01
2022-09-15T01:09:22.426Z,15.01
2022-09-15T01:09:32.444Z,15.01
2022-09-15T01:09:42.553Z,15.01
2022-09-15T01:09:52.572Z,15.03
2022-09-15T01:10:02.602Z,15.01
2022-09-15T01:10:12.625Z,15.01
2022-09-15T01:10:22.664Z,15.01
2022-09-15T01:10:32.691Z,15.01
2022-09-15T01:10:42.722Z,15.01
2022-09-15T01:10:52.763Z,15.03
2022-09-15T01:11:02.802Z,15.00
2022-09-15T01:11:12.834Z,15.01
2022-09-15T01:11:22.863Z,15.01
2022-09-15T01:11:32.888Z,15.01
2022-09-15T01:11:42.914Z,15.01
2022-09-15T01:11:52.944Z,15.01
2022-09-15T01:12:02.964Z,15.01
2022-09-15T01:12:13.014Z,15.03
2022-09-15T01:12:23.043Z,15.03
2022-09-15T01:12:33.086Z,15.03
2022-09-15T01:12:43.113Z,15.01
2022-09-15T01:12:53.164Z,15.01
2022-09-15T01:13:03.193Z,15.01
2022-09-15T01:13:13.213Z,15.00
2022-09-15T01:13:23.234Z,15.00
2022-09-15T01:13:33.266Z,15.00
2022-09-15T01:13:43.313Z,15.01
2022-09-15T01:13:53.353Z,15.01
2022-09-15T01:14:03.393Z,15.00
2022-09-15T01:14:13.453Z,15.00
2022-09-15T01:14:23.491Z,15.00
2022-09-15T01:15:10.711Z,14.97
2022-09-15T01:15:20.752Z,14.98
2022-09-15T01:15:30.812Z,14.98
2022-09-15T01:15:40.871Z,14.97
2022-09-15T01:15:50.953Z,14.98
2022-09-15T01:16:01.020Z,14.97
2022-09-15T01:16:11.121Z,14.95
2022-09-15T01:16:21.248Z,14.94
2022-09-15T01:16:31.341Z,14.95
2022-09-15T01:16:41.454Z,14.94
2022-09-15T01:16:51.471Z,14.93
2022-09-15T01:17:01.510Z,14.94
2022-09-15T01:17:11.561Z,14.93
2022-09-15T01:17:21.661Z,14.91
2022-09-15T01:17:31.732Z,14.90
2022-09-15T01:17:41.780Z,14.91
2022-09-15T01:17:51.840Z,14.90
2022-09-15T01:18:01.913Z,14.90
2022-09-15T01:18:11.972Z,14.90
2022-09-15T01:18:22.037Z,14.87
2022-09-15T01:18:32.102Z,14.87
2022-09-15T01:18:42.181Z,14.90
2022-09-15T01:18:52.271Z,14.87
2022-09-15T01:19:02.342Z,14.90
2022-09-15T01:19:12.410Z,14.87
2022-09-15T01:19:22.480Z,14.87
2022-09-15T01:19:32.560Z,14.87
2022-09-15T01:19:42.631Z,14.86
2022-09-15T01:19:52.701Z,14.87
2022-09-15T01:20:02.770Z,14.86
2022-09-15T01:20:12.830Z,14.86
2022-09-15T01:20:23.071Z,14.85
2022-09-15T01:20:33.131Z,14.85
2022-09-15T01:20:43.197Z,14.86
2022-09-15T01:20:53.272Z,14.85
2022-09-15T01:21:03.360Z,14.83
2022-09-15T01:21:13.421Z,14.83
2022-09-15T01:21:23.500Z,14.82
2022-09-15T01:21:33.551Z,14.83
2022-09-15T01:21:43.611Z,14.83
2022-09-15T01:21:58.103Z,14.82
2022-09-15T01:22:04.649Z,14.82
2022-09-15T01:22:14.710Z,14.82
2022-09-15T01:22:24.760Z,14.82
2022-09-15T01:22:34.802Z,14.82
2022-09-15T01:22:44.851Z,14.83
2022-09-15T01:22:54.900Z,14.83
2022-09-15T01:23:04.960Z,14.83
2022-09-15T01:23:15.011Z,14.82
2022-09-15T01:23:25.061Z,14.82
2022-09-15T01:23:35.099Z,14.82
2022-09-15T01:23:45.197Z,14.82
2022-09-15T01:23:55.312Z,14.82
2022-09-15T01:24:05.369Z,14.80
2022-09-15T01:24:15.422Z,14.80
2022-09-15T01:24:25.481Z,14.82
2022-09-15T01:24:35.532Z,14.82
2022-09-15T01:24:45.600Z,14.82
2022-09-15T01:24:55.690Z,14.82
2022-09-15T01:25:05.751Z,14.82
2022-09-15T01:25:15.808Z,14.82
2022-09-15T01:25:25.891Z,14.82
2022-09-15T01:25:35.952Z,14.80
2022-09-15T01:25:46.011Z,14.82
2022-09-15T01:25:56.051Z,14.80
2022-09-15T01:26:06.111Z,14.80
2022-09-15T01:26:16.168Z,14.82
2022-09-15T01:26:26.220Z,14.80
2022-09-15T01:26:36.270Z,14.79
2022-09-15T01:26:46.330Z,14.79
2022-09-15T01:26:56.384Z,14.80
2022-09-15T01:27:24.085Z,14.79
2022-09-15T01:27:40.544Z,14.78
2022-09-15T01:27:41.720Z,14.79
2022-09-15T01:27:42.450Z,14.79
2022-09-15T01:27:49.512Z,14.79
2022-09-15T01:27:59.541Z,14.79
2022-09-15T01:28:09.582Z,14.80
2022-09-15T01:28:19.611Z,14.80
2022-09-15T01:28:29.691Z,14.80
2022-09-15T01:28:39.860Z,14.80
2022-09-15T01:28:49.891Z,14.79
2022-09-15T01:28:59.901Z,14.78
2022-09-15T01:29:09.941Z,14.79
2022-09-15T01:29:21.748Z,14.78
2022-09-15T01:29:29.983Z,14.78
2022-09-15T01:29:40.021Z,14.78
2022-09-15T01:29:50.040Z,14.75
2022-09-15T01:30:00.070Z,14.75
2022-09-15T01:30:10.081Z,14.75
2022-09-15T01:30:20.119Z,14.75
2022-09-15T01:30:30.143Z,14.75
2022-09-15T01:30:40.194Z,14.72
2022-09-15T01:30:50.180Z,14.74
2022-09-15T01:31:00.231Z,14.74
2022-09-15T01:31:10.303Z,14.72
2022-09-15T01:31:20.340Z,14.72
2022-09-15T01:31:30.399Z,14.72
2022-09-15T01:31:40.543Z,14.74
2022-09-15T01:31:50.669Z,14.71
2022-09-15T01:32:00.700Z,14.71
2022-09-15T01:32:10.722Z,14.71
2022-09-15T01:32:20.759Z,14.72
2022-09-15T01:32:30.798Z,14.71
2022-09-15T01:32:40.819Z,14.71
2022-09-15T01:32:50.849Z,14.71
2022-09-15T01:33:00.875Z,14.71
2022-09-15T01:33:10.920Z,14.71
2022-09-15T01:33:20.940Z,14.71
2022-09-15T01:33:30.981Z,14.71
2022-09-15T01:33:41.011Z,14.71
2022-09-15T01:33:51.030Z,14.69
2022-09-15T01:34:01.060Z,14.69
2022-09-15T01:34:11.110Z,14.69
2022-09-15T01:34:21.141Z,14.69
2022-09-15T01:34:31.191Z,14.69
2022-09-15T01:34:41.241Z,14.69
2022-09-15T01:34:51.300Z,14.69
2022-09-15T01:35:01.341Z,14.67
2022-09-15T01:35:11.391Z,14.69
2022-09-15T01:35:21.422Z,14.69
2022-09-15T01:35:31.460Z,14.67
2022-09-15T01:35:41.540Z,14.67
2022-09-15T01:35:51.613Z,14.67
2022-09-15T01:36:01.671Z,14.66
2022-09-15T01:36:11.731Z,14.66
2022-09-15T01:36:21.810Z,14.64
2022-09-15T01:36:31.877Z,14.64
2022-09-15T01:36:41.941Z,14.64
2022-09-15T01:36:52.043Z,14.64
2022-09-15T01:37:02.128Z,14.64
2022-09-15T01:37:12.201Z,14.64
2022-09-15T01:37:22.283Z,14.64
2022-09-15T01:37:32.361Z,14.63
2022-09-15T01:37:42.410Z,14.63
2022-09-15T01:37:52.500Z,14.64
2022-09-15T01:38:02.569Z,14.64
2022-09-15T01:38:12.740Z,14.64
2022-09-15T01:38:22.810Z,14.63
2022-09-15T01:38:32.948Z,14.63
2022-09-15T01:38:43.021Z,14.61
2022-09-15T01:38:53.161Z,14.61
2022-09-15T01:39:03.271Z,14.61
2022-09-15T01:39:13.340Z,14.60
2022-09-15T01:39:23.400Z,14.60
2022-09-15T01:39:33.470Z,14.60
2022-09-15T01:39:43.530Z,14.60
2022-09-15T01:39:53.635Z,14.61
2022-09-15T01:40:03.760Z,14.60
2022-09-15T01:40:13.945Z,14.60
2022-09-15T01:40:24.112Z,14.61
2022-09-15T01:40:34.090Z,14.60
2022-09-15T01:40:44.020Z,14.61
2022-09-15T01:40:54.104Z,14.60
2022-09-15T01:41:04.168Z,14.60
2022-09-15T01:41:14.248Z,14.60
2022-09-15T01:41:24.311Z,14.59
2022-09-15T01:41:34.402Z,14.60
2022-09-15T01:41:44.500Z,14.59
2022-09-15T01:41:54.597Z,14.60
2022-09-15T01:42:04.650Z,14.60
2022-09-15T01:42:14.732Z,14.60
2022-09-15T01:42:24.800Z,14.60
2022-09-15T01:42:34.880Z,14.60
2022-09-15T01:42:44.951Z,14.60
2022-09-15T01:42:55.031Z,14.60
2022-09-15T01:43:05.100Z,14.60
2022-09-15T01:43:15.181Z,14.61
2022-09-15T01:43:25.258Z,14.60
2022-09-15T01:43:35.310Z,14.60
2022-09-15T01:43:45.399Z,14.60
2022-09-15T01:43:55.460Z,14.60
2022-09-15T01:44:05.539Z,14.60
2022-09-15T01:44:15.610Z,14.60
2022-09-15T01:44:25.681Z,14.59
2022-09-15T01:44:35.761Z,14.59
2022-09-15T01:44:45.851Z,14.59
2022-09-15T01:44:55.980Z,14.59
2022-09-15T01:45:06.060Z,14.59
2022-09-15T01:45:16.140Z,14.57
2022-09-15T01:45:26.274Z,14.57
2022-09-15T01:45:36.380Z,14.59
2022-09-15T01:45:46.551Z,14.57
2022-09-15T01:45:56.698Z,14.57
2022-09-15T01:46:06.856Z,14.59
2022-09-15T01:46:17.028Z,14.57
2022-09-15T01:46:27.030Z,14.59
2022-09-15T01:46:37.110Z,14.60
2022-09-15T01:46:47.187Z,14.59
2022-09-15T01:46:57.289Z,14.59
2022-09-15T01:47:07.359Z,14.59
2022-09-15T01:47:17.469Z,14.59
2022-09-15T01:47:27.542Z,14.59
2022-09-15T01:47:37.629Z,14.59
2022-09-15T01:47:47.691Z,14.59
2022-09-15T01:47:57.780Z,14.60
2022-09-15T01:48:07.853Z,14.60
2022-09-15T01:48:17.931Z,14.59
2022-09-15T01:48:27.930Z,14.59
2022-09-15T01:48:37.999Z,14.59
2022-09-15T01:48:48.060Z,14.59
2022-09-15T01:48:58.130Z,14.59
2022-09-15T01:49:08.180Z,14.59
2022-09-15T01:49:18.260Z,14.60
2022-09-15T01:49:28.322Z,14.59
2022-09-15T01:49:38.390Z,14.60
2022-09-15T01:49:48.471Z,14.60
2022-09-15T01:49:58.590Z,14.60
2022-09-15T01:50:08.670Z,14.60
2022-09-15T01:50:18.740Z,14.60
2022-09-15T01:50:28.827Z,14.60
2022-09-15T01:50:38.920Z,14.60
2022-09-15T01:50:49.000Z,14.60
2022-09-15T01:50:59.070Z,14.60
2022-09-15T01:51:09.170Z,14.61
2022-09-15T01:51:19.248Z,14.60
2022-09-15T01:51:29.301Z,14.60
2022-09-15T01:51:39.382Z,14.60
2022-09-15T01:51:49.460Z,14.61
2022-09-15T01:51:59.550Z,14.60
2022-09-15T01:52:09.627Z,14.60
2022-09-15T01:52:19.722Z,14.59
2022-09-15T01:52:29.787Z,14.60
2022-09-15T01:52:39.850Z,14.59
2022-09-15T01:52:49.919Z,14.59
2022-09-15T01:52:59.992Z,14.57
2022-09-15T01:53:10.059Z,14.57
2022-09-15T01:53:20.141Z,14.57
2022-09-15T01:53:30.200Z,14.56
2022-09-15T01:53:40.269Z,14.54
2022-09-15T01:53:50.372Z,14.56
2022-09-15T01:54:00.350Z,14.56
2022-09-15T01:54:10.434Z,14.56
2022-09-15T01:54:20.500Z,14.54
2022-09-15T01:54:30.579Z,14.54
2022-09-15T01:54:40.639Z,14.54
2022-09-15T01:54:50.717Z,14.54
2022-09-15T01:55:00.769Z,14.54
2022-09-15T01:55:10.849Z,14.53
2022-09-15T01:55:20.909Z,14.53
2022-09-15T01:55:30.990Z,14.52
2022-09-15T01:55:41.063Z,14.53
2022-09-15T01:55:51.130Z,14.52
2022-09-15T01:56:01.200Z,14.52
2022-09-15T01:56:11.277Z,14.52
2022-09-15T01:56:21.350Z,14.48
2022-09-15T01:56:31.414Z,14.49
2022-09-15T01:56:41.480Z,14.49
2022-09-15T01:56:51.558Z,14.49
2022-09-15T01:57:01.611Z,14.48
2022-09-15T01:57:11.679Z,14.48
2022-09-15T01:57:21.731Z,14.48
2022-09-15T01:57:31.808Z,14.45
2022-09-15T01:57:41.868Z,14.46
2022-09-15T01:57:51.930Z,14.46
2022-09-15T01:58:02.017Z,14.45
2022-09-15T01:58:12.109Z,14.44
2022-09-15T01:58:22.250Z,14.44
2022-09-15T01:58:32.319Z,14.44
2022-09-15T01:58:42.387Z,14.42
2022-09-15T01:58:52.510Z,14.42
2022-09-15T01:59:02.611Z,14.42
2022-09-15T01:59:12.672Z,14.41
2022-09-15T01:59:22.730Z,14.41
2022-09-15T01:59:32.799Z,14.42
2022-09-15T01:59:42.861Z,14.41
2022-09-15T01:59:52.932Z,14.42
2022-09-15T02:00:03.010Z,14.41
2022-09-15T02:00:13.121Z,14.42
2022-09-15T02:00:23.168Z,14.41
2022-09-15T02:00:33.232Z,14.41
2022-09-15T02:00:43.410Z,14.41
2022-09-15T02:00:53.519Z,14.41
2022-09-15T02:01:03.604Z,14.41
2022-09-15T02:01:13.766Z,14.41
2022-09-15T02:01:23.719Z,14.39
2022-09-15T02:01:33.840Z,14.41
2022-09-15T02:01:44.044Z,14.39
2022-09-15T02:01:54.135Z,14.39
2022-09-15T02:02:04.138Z,14.38
2022-09-15T02:02:14.215Z,14.39
2022-09-15T02:02:24.347Z,14.38
2022-09-15T02:02:34.542Z,14.38
2022-09-15T02:02:44.601Z,14.36
2022-09-15T02:02:54.655Z,14.38
2022-09-15T02:03:04.711Z,14.38
2022-09-15T02:03:14.779Z,14.38
2022-09-15T02:03:24.841Z,14.36
2022-09-15T02:03:34.920Z,14.36
2022-09-15T02:03:44.988Z,14.36
2022-09-15T02:03:55.057Z,14.36
2022-09-15T02:04:05.119Z,14.36
2022-09-15T02:04:15.180Z,14.35
2022-09-15T02:04:25.299Z,14.35
2022-09-15T02:04:35.359Z,14.35
2022-09-15T02:04:45.450Z,14.35
2022-09-15T02:04:55.529Z,14.35
2022-09-15T02:05:05.599Z,14.34
2022-09-15T02:05:15.650Z,14.35
2022-09-15T02:05:25.723Z,14.35
2022-09-15T02:05:35.789Z,14.35
2022-09-15T02:05:45.859Z,14.31
2022-09-15T02:05:55.929Z,14.31
2022-09-15T02:06:06.019Z,14.34
2022-09-15T02:06:16.089Z,14.31
2022-09-15T02:06:26.160Z,14.34
2022-09-15T02:06:36.230Z,14.34
2022-09-15T02:06:46.310Z,14.34
2022-09-15T02:06:56.381Z,14.35
2022-09-15T02:07:06.460Z,14.34
2022-09-15T02:07:16.535Z,14.31
2022-09-15T02:07:26.609Z,14.34
2022-09-15T02:07:36.669Z,14.34
2022-09-15T02:07:46.739Z,14.34
2022-09-15T02:07:56.811Z,14.34
2022-09-15T02:08:06.909Z,14.31
2022-09-15T02:08:16.968Z,14.34
2022-09-15T02:08:27.039Z,14.31
2022-09-15T02:08:37.117Z,14.31
2022-09-15T02:08:47.199Z,14.30
2022-09-15T02:08:57.270Z,14.31
2022-09-15T02:09:07.342Z,14.30
2022-09-15T02:09:17.411Z,14.30
2022-09-15T02:09:27.486Z,14.29
2022-09-15T02:09:37.548Z,14.29
2022-09-15T02:09:47.630Z,14.27
2022-09-15T02:09:57.690Z,14.29
2022-09-15T02:10:07.760Z,14.29
2022-09-15T02:10:17.828Z,14.27